Time;durP1;ratioP1;P1;durP2;ratioP2;P2;SDS_P1;SDS_P2;PMS_P1;PMS_P2;Temp;Humidity;BMP_temperature;BMP_pressure;BME280_temperature;BME280_humidity;BME280_pressure;Samples;Min_cycle;Max_cycle;Signal;HPM_P1;HPM_P2
2023/06/30 00:01:54;;;;;;;13.90;12.90;;;;;;;14.77;93.96;92955.88;5015926;28;20221;-78
2023/06/30 00:04:22;;;;;;;13.97;12.73;;;;;;;14.78;94.18;92952.97;5013521;28;20210;-79
2023/06/30 00:06:49;;;;;;;15.13;13.90;;;;;;;14.75;94.83;92948.31;5013603;28;20275;-79
2023/06/30 00:09:23;;;;;;;14.30;13.30;;;;;;;14.45;95.18;92904.25;5015469;28;20278;-80
2023/06/30 00:11:51;;;;;;;13.60;12.50;;;;;;;14.52;96.56;92950.06;5027665;28;20267;-80
2023/06/30 00:14:16;;;;;;;12.70;11.80;;;;;;;14.46;97.15;92961.75;5024495;28;20295;-79
2023/06/30 00:16:42;;;;;;;13.73;12.83;;;;;;;14.44;97.70;92950.75;5023692;28;20187;-79
2023/06/30 00:19:08;;;;;;;14.30;13.30;;;;;;;14.29;97.70;92930.06;5018223;28;20188;-79
2023/06/30 00:21:33;;;;;;;14.43;13.40;;;;;;;14.33;98.17;92952.03;5015687;28;20183;-80
2023/06/30 00:24:01;;;;;;;13.40;12.20;;;;;;;14.32;98.55;92947.84;5013098;28;20215;-79
2023/06/30 00:26:28;;;;;;;14.07;13.07;;;;;;;14.34;98.39;92948.34;5024906;28;20234;-79
2023/06/30 00:28:54;;;;;;;13.23;12.40;;;;;;;14.28;98.37;92954.78;5013258;28;20191;-79
2023/06/30 00:31:20;;;;;;;14.30;13.30;;;;;;;14.20;98.83;92942.28;5012882;28;20223;-77
2023/06/30 00:33:45;;;;;;;14.47;13.23;;;;;;;14.21;99.09;92945.69;5017073;28;20186;-78
2023/06/30 00:36:11;;;;;;;14.97;13.70;;;;;;;14.18;100.00;92944.41;5015256;28;20243;-79
2023/06/30 00:38:36;;;;;;;15.17;14.07;;;;;;;14.10;99.56;92942.47;5014124;28;20225;-79
2023/06/30 00:41:02;;;;;;;13.20;12.40;;;;;;;13.87;100.00;92945.25;5012562;28;20238;-79
2023/06/30 00:43:27;;;;;;;14.57;13.57;;;;;;;14.00;100.00;92947.91;5025721;28;20218;-77
2023/06/30 00:45:53;;;;;;;14.20;13.20;;;;;;;14.04;100.00;92942.84;5011523;28;20282;-79
2023/06/30 00:48:19;;;;;;;14.87;13.73;;;;;;;14.03;100.00;92944.72;5013044;28;20176;-85
2023/06/30 00:50:44;;;;;;;13.90;12.83;;;;;;;13.94;100.00;92949.09;5020644;28;20227;-80
2023/06/30 00:53:12;;;;;;;14.47;13.43;;;;;;;13.86;100.00;92925.34;5012703;28;20835;-80
2023/06/30 00:55:39;;;;;;;15.33;14.30;;;;;;;13.97;100.00;92938.00;5012984;28;20227;-79
2023/06/30 00:58:05;;;;;;;14.37;13.37;;;;;;;13.97;100.00;92943.25;5012621;28;20210;-80
2023/06/30 01:00:30;;;;;;;13.73;12.73;;;;;;;14.09;100.00;92946.16;5012099;28;20243;-79
2023/06/30 01:03:04;;;;;;;14.83;13.60;;;;;;;14.03;100.00;92946.53;5011854;28;20233;-81
2023/06/30 01:05:45;;;;;;;14.07;12.67;;;;;;;14.09;100.00;92946.16;5011589;28;20293;-82
2023/06/30 01:08:10;;;;;;;13.87;12.80;;;;;;;14.12;100.00;92944.81;5000608;28;20194;-80
2023/06/30 01:10:37;;;;;;;15.23;14.13;;;;;;;13.95;100.00;92929.63;5011946;28;20231;-81
2023/06/30 01:13:04;;;;;;;15.03;13.57;;;;;;;14.06;100.00;92941.50;5013138;28;20206;-81
2023/06/30 01:15:31;;;;;;;13.80;12.80;;;;;;;13.98;100.00;92933.50;5022034;28;20218;-81
2023/06/30 01:18:00;;;;;;;14.50;13.50;;;;;;;14.03;100.00;92944.72;5025935;28;20230;-81
2023/06/30 01:20:29;;;;;;;14.67;13.47;;;;;;;13.93;100.00;92944.88;5012833;28;20303;-79
2023/06/30 01:23:14;;;;;;;14.07;13.10;;;;;;;13.79;100.00;92944.09;5012226;28;20221;-80
2023/06/30 01:25:40;;;;;;;14.33;13.17;;;;;;;13.79;100.00;92924.97;5009455;28;20301;-81
2023/06/30 01:28:07;;;;;;;14.80;13.50;;;;;;;13.86;100.00;92938.47;5012283;28;20179;-80
2023/06/30 01:30:33;;;;;;;14.30;13.33;;;;;;;13.82;100.00;92938.25;5011894;28;20294;-81
2023/06/30 01:32:59;;;;;;;14.53;13.53;;;;;;;13.78;100.00;92918.91;5012429;28;20191;-79
2023/06/30 01:35:26;;;;;;;13.57;12.73;;;;;;;13.92;100.00;92918.94;5011861;28;20230;-80
2023/06/30 01:37:53;;;;;;;14.23;13.23;;;;;;;13.87;100.00;92925.06;5012729;28;20180;-80
2023/06/30 01:40:18;;;;;;;14.90;13.77;;;;;;;13.91;100.00;92917.38;5011724;28;20231;-80
2023/06/30 01:42:45;;;;;;;13.50;12.30;;;;;;;13.87;100.00;92911.94;5012390;28;20278;-80
2023/06/30 01:45:11;;;;;;;13.20;12.13;;;;;;;13.83;100.00;92903.09;5011201;28;20291;-81
2023/06/30 01:47:37;;;;;;;13.90;12.80;;;;;;;13.84;100.00;92904.63;5012124;28;20198;-81
2023/06/30 01:50:03;;;;;;;13.93;13.03;;;;;;;13.83;100.00;92905.72;5043168;28;20224;-81
2023/06/30 01:52:29;;;;;;;13.07;12.17;;;;;;;13.66;100.00;92904.72;5015072;28;20195;-80
2023/06/30 01:54:54;;;;;;;13.43;12.53;;;;;;;13.64;100.00;92910.25;5011466;28;20241;-80
2023/06/30 01:57:20;;;;;;;17.53;13.07;;;;;;;13.57;100.00;92911.69;5022151;28;20278;-80
2023/06/30 01:59:45;;;;;;;13.63;12.73;;;;;;;13.54;100.00;92912.28;5020035;28;20223;-80
2023/06/30 02:02:11;;;;;;;13.47;12.63;;;;;;;13.40;100.00;92904.34;5011931;28;20203;-80
2023/06/30 02:04:36;;;;;;;13.73;12.73;;;;;;;13.51;100.00;92915.47;5010831;28;20231;-80
2023/06/30 02:07:02;;;;;;;14.83;13.67;;;;;;;13.37;100.00;92902.31;5015389;28;20194;-79
2023/06/30 02:09:28;;;;;;;13.87;12.97;;;;;;;13.53;100.00;92921.19;5010790;28;20270;-79
2023/06/30 02:11:53;;;;;;;13.60;12.50;;;;;;;13.56;100.00;92913.53;5011728;28;20184;-80
2023/06/30 02:14:18;;;;;;;14.93;13.77;;;;;;;13.47;100.00;92920.50;5012099;28;20251;-80
2023/06/30 02:16:44;;;;;;;14.40;13.40;;;;;;;13.32;100.00;92897.19;5020143;28;20187;-80
2023/06/30 02:19:09;;;;;;;14.97;13.60;;;;;;;13.31;100.00;92906.09;5010592;28;20187;-80
2023/06/30 02:21:35;;;;;;;14.80;13.70;;;;;;;13.53;100.00;92918.56;5012370;28;20184;-80
2023/06/30 02:24:00;;;;;;;13.40;12.53;;;;;;;13.45;100.00;92916.63;5010566;28;20227;-78
2023/06/30 02:26:25;;;;;;;14.13;13.13;;;;;;;13.34;100.00;92908.13;5010449;28;20309;-80
2023/06/30 02:28:51;;;;;;;13.83;12.83;;;;;;;13.27;100.00;92905.13;5010770;28;20176;-80
2023/06/30 02:31:16;;;;;;;13.53;12.43;;;;;;;13.30;100.00;92909.78;5010256;28;20215;-80
2023/06/30 02:33:42;;;;;;;14.03;12.77;;;;;;;13.38;100.00;92922.25;5010280;28;20175;-78
2023/06/30 02:36:07;;;;;;;14.93;13.93;;;;;;;13.27;100.00;92901.72;5010462;28;20239;-80
2023/06/30 02:38:32;;;;;;;13.43;12.53;;;;;;;13.30;100.00;92906.38;5010246;28;20305;-80
2023/06/30 02:40:58;;;;;;;14.57;13.23;;;;;;;13.23;100.00;92911.97;5019703;28;20290;-79
2023/06/30 02:43:23;;;;;;;14.93;13.47;;;;;;;13.36;100.00;92916.50;5010656;28;20191;-80
2023/06/30 02:45:49;;;;;;;13.33;12.43;;;;;;;13.26;100.00;92906.16;5010003;28;20289;-78
2023/06/30 02:48:14;;;;;;;13.23;12.33;;;;;;;13.39;100.00;92915.94;5010373;28;20211;-81
2023/06/30 02:50:39;;;;;;;13.57;12.57;;;;;;;13.25;100.00;92920.34;5017091;28;20277;-81
2023/06/30 02:53:05;;;;;;;14.07;13.07;;;;;;;13.22;100.00;92913.06;5010194;28;20199;-80
2023/06/30 02:55:32;;;;;;;15.33;13.87;;;;;;;13.04;100.00;92911.25;5009980;28;20235;-81
2023/06/30 02:57:57;;;;;;;13.87;12.77;;;;;;;13.07;100.00;92912.53;5010698;28;20194;-82
2023/06/30 03:00:23;;;;;;;14.07;12.97;;;;;;;13.19;100.00;92903.16;5009626;28;20259;-80
2023/06/30 03:02:48;;;;;;;14.07;12.97;;;;;;;13.41;100.00;92903.31;5010027;28;20243;-80
2023/06/30 03:05:14;;;;;;;15.23;14.13;;;;;;;13.56;100.00;92916.16;5017521;28;20230;-80
2023/06/30 03:07:39;;;;;;;14.33;13.33;;;;;;;13.76;100.00;92910.56;5013335;28;20188;-78
2023/06/30 03:10:05;;;;;;;13.80;12.80;;;;;;;13.83;100.00;92892.59;5009957;28;20249;-79
2023/06/30 03:12:30;;;;;;;14.63;13.50;;;;;;;13.89;100.00;92873.06;5025321;28;20192;-80
2023/06/30 03:14:56;;;;;;;13.30;12.40;;;;;;;14.22;99.48;92908.63;5016833;28;20242;-79
2023/06/30 03:17:21;;;;;;;15.00;13.80;;;;;;;14.35;98.23;92881.59;5013191;28;20201;-79
2023/06/30 03:19:46;;;;;;;13.57;12.67;;;;;;;14.62;96.70;92904.41;5014006;28;20310;-79
2023/06/30 03:22:12;;;;;;;13.93;12.93;;;;;;;14.85;95.75;92910.50;5009768;28;20179;-73
2023/06/30 03:24:38;;;;;;;13.70;12.60;;;;;;;14.56;96.39;92860.16;5008992;28;20223;-73
2023/06/30 03:27:04;;;;;;;13.20;12.30;;;;;;;15.02;95.82;92910.66;5023244;28;20255;-73
2023/06/30 03:29:29;;;;;;;12.57;11.60;;;;;;;14.99;96.03;92903.34;5009441;28;20258;-72
2023/06/30 03:31:55;;;;;;;13.97;12.90;;;;;;;14.92;96.53;92893.25;5009766;28;20217;-73
2023/06/30 03:34:20;;;;;;;12.97;11.87;;;;;;;15.11;96.33;92903.59;5013164;28;20183;-73
2023/06/30 03:36:45;;;;;;;13.83;12.83;;;;;;;15.40;95.34;92912.66;5009459;28;20183;-73
2023/06/30 03:39:11;;;;;;;13.80;12.80;;;;;;;15.50;94.17;92901.09;5009489;28;20238;-73
2023/06/30 03:41:37;;;;;;;13.40;12.43;;;;;;;15.52;93.96;92912.09;5008697;28;20874;-73
2023/06/30 03:44:02;;;;;;;14.73;12.43;;;;;;;15.54;90.91;92896.78;5010273;28;20187;-74
2023/06/30 03:46:27;;;;;;;13.13;12.20;;;;;;;15.60;91.77;92906.88;5009021;28;20243;-72
2023/06/30 03:48:53;;;;;;;15.27;13.93;;;;;;;15.58;92.87;92913.53;5009818;28;20480;-73
2023/06/30 03:51:18;;;;;;;17.90;16.23;;;;;;;15.76;92.64;92918.59;5008781;28;20687;-73
2023/06/30 03:53:44;;;;;;;18.57;16.87;;;;;;;15.35;93.73;92906.69;5009260;28;20187;-73
2023/06/30 03:56:09;;;;;;;20.27;15.80;;;;;;;15.58;94.09;92913.53;5008888;28;20274;-73
2023/06/30 03:58:35;;;;;;;17.20;15.50;;;;;;;15.96;92.89;92925.19;5011564;28;20183;-74
2023/06/30 04:01:00;;;;;;;16.90;15.67;;;;;;;15.89;92.64;92917.72;5013471;28;20246;-74
2023/06/30 04:03:26;;;;;;;15.47;14.17;;;;;;;16.10;92.60;92915.34;5010008;28;20226;-74
2023/06/30 04:05:52;;;;;;;17.23;15.90;;;;;;;16.33;90.54;92919.44;5010276;28;20247;-74
2023/06/30 04:08:18;;;;;;;19.00;17.43;;;;;;;15.97;92.85;92924.09;5009521;28;20184;-72
2023/06/30 04:10:43;;;;;;;16.77;15.43;;;;;;;16.12;92.99;92928.97;5008997;28;20234;-73
2023/06/30 04:13:09;;;;;;;16.43;14.93;;;;;;;16.37;91.56;92930.94;5009752;28;20583;-73
2023/06/30 04:15:35;;;;;;;17.83;16.33;;;;;;;16.59;90.16;92933.47;5018583;28;20238;-74
2023/06/30 04:18:00;;;;;;;16.53;15.23;;;;;;;16.38;91.40;92929.84;5021212;28;20192;-74
2023/06/30 04:20:26;;;;;;;17.40;16.00;;;;;;;16.09;93.66;92922.44;5008743;28;20227;-74
2023/06/30 04:22:51;;;;;;;18.80;17.10;;;;;;;16.22;93.87;92933.97;5009220;28;20206;-73
2023/06/30 04:25:17;;;;;;;19.37;17.60;;;;;;;16.31;92.39;92926.09;5008600;28;20219;-73
2023/06/30 04:27:43;;;;;;;18.50;16.67;;;;;;;16.21;92.97;92932.41;5009282;28;20183;-73
2023/06/30 04:30:09;;;;;;;18.80;16.97;;;;;;;15.93;94.10;92929.22;5008919;28;20227;-75
2023/06/30 04:32:34;;;;;;;18.40;16.70;;;;;;;16.33;93.11;92929.97;5010298;28;20197;-73
2023/06/30 04:35:00;;;;;;;19.20;17.47;;;;;;;16.70;91.63;92924.19;5017843;28;20258;-73
2023/06/30 04:37:30;;;;;;;18.10;16.50;;;;;;;18.45;82.13;92924.94;5012914;28;20187;-73
2023/06/30 04:39:57;;;;;;;19.50;17.00;;;;;;;18.54;79.94;92933.59;5012583;28;20694;-73
2023/06/30 04:42:23;;;;;;;17.33;15.93;;;;;;;17.76;83.42;92924.38;5013081;28;20191;-73
2023/06/30 04:44:48;;;;;;;17.50;16.07;;;;;;;17.52;85.61;92918.84;5012565;28;20227;-74
2023/06/30 04:47:15;;;;;;;17.17;15.57;;;;;;;18.53;81.04;92922.25;5017943;28;20206;-74
2023/06/30 04:49:41;;;;;;;17.27;15.87;;;;;;;17.93;83.47;92916.41;5017752;28;20231;-73
2023/06/30 04:52:06;;;;;;;16.97;15.40;;;;;;;17.25;86.88;92904.06;5012879;28;20183;-74
2023/06/30 04:54:32;;;;;;;17.70;16.10;;;;;;;17.21;87.95;92924.25;5012242;28;20247;-73
2023/06/30 04:56:57;;;;;;;17.83;16.17;;;;;;;17.18;87.80;92910.91;5012799;28;20196;-73
2023/06/30 04:59:23;;;;;;;17.37;15.73;;;;;;;17.25;87.91;92933.09;5020424;28;20225;-73
2023/06/30 05:01:49;;;;;;;18.10;16.63;;;;;;;17.22;88.43;92925.81;5005144;28;20199;-73
2023/06/30 05:04:15;;;;;;;17.57;15.93;;;;;;;17.19;89.05;92921.16;5011514;28;20225;-75
2023/06/30 05:06:40;;;;;;;17.70;16.13;;;;;;;17.15;88.70;92930.75;5012113;28;20285;-75
2023/06/30 05:09:06;;;;;;;18.07;15.97;;;;;;;17.42;87.27;92922.53;5012308;28;20179;-74
2023/06/30 05:11:31;;;;;;;19.07;16.80;;;;;;;17.68;86.28;92924.41;5012167;28;20215;-74
2023/06/30 05:13:57;;;;;;;18.13;16.50;;;;;;;17.81;85.58;92926.06;5012685;28;20179;-76
2023/06/30 05:16:23;;;;;;;17.53;15.90;;;;;;;18.92;79.93;92929.81;5005285;28;20220;-69
2023/06/30 05:18:48;;;;;;;16.97;15.43;;;;;;;19.15;79.40;92938.22;5011215;28;20259;-71
2023/06/30 05:21:13;;;;;;;17.47;15.77;;;;;;;18.90;79.37;92939.16;5010659;28;20224;-69
2023/06/30 05:23:39;;;;;;;17.30;15.80;;;;;;;19.15;76.31;92930.28;5008721;28;20196;-69
2023/06/30 05:26:05;;;;;;;16.60;15.27;;;;;;;18.10;80.94;92923.50;5013473;28;20224;-69
2023/06/30 05:28:30;;;;;;;16.00;14.40;;;;;;;18.19;79.51;92918.97;5018857;28;20193;-71
2023/06/30 05:30:56;;;;;;;16.57;15.27;;;;;;;17.92;81.89;92945.78;5011668;28;20230;-70
2023/06/30 05:33:21;;;;;;;17.60;16.07;;;;;;;17.60;84.67;92937.28;5011013;28;20196;-69
2023/06/30 05:35:47;;;;;;;17.23;15.63;;;;;;;20.26;75.25;92945.97;5006946;28;20227;-69
2023/06/30 05:38:12;;;;;;;15.83;14.43;;;;;;;21.17;68.10;92947.31;5011570;28;20212;-69
2023/06/30 05:40:38;;;;;;;15.37;14.07;;;;;;;23.43;62.74;92958.88;5010572;28;20226;-69
2023/06/30 05:43:03;;;;;;;13.75;12.75;;;;;;;28.70;43.72;92973.16;5011076;28;20198;-69
2023/06/30 05:45:28;;;;;;;14.48;13.18;;;;;;;30.39;39.22;92978.34;5011342;28;20500;-69
2023/06/30 05:47:54;;;;;;;13.60;12.35;;;;;;;32.90;34.92;92983.75;5006473;28;20214;-69
2023/06/30 05:50:21;;;;;;;13.90;11.70;;;;;;;34.12;32.26;92987.16;5008959;28;20327;-70
2023/06/30 05:52:48;;;;;;;12.73;11.50;;;;;;;32.96;32.10;92974.78;5010426;28;20207;-70
2023/06/30 05:55:13;;;;;;;12.40;11.35;;;;;;;33.13;32.97;92989.22;5010714;28;20212;-70
2023/06/30 05:57:39;;;;;;;12.20;11.20;;;;;;;29.52;37.11;92970.13;5010801;28;20316;-70
2023/06/30 06:00:06;;;;;;;12.65;11.43;;;;;;;34.16;31.81;92995.22;5009855;28;20230;-69
2023/06/30 06:02:31;;;;;;;12.40;11.15;;;;;;;35.09;28.93;92988.25;5010284;28;20195;-69
2023/06/30 06:04:56;;;;;;;11.60;10.48;;;;;;;33.74;30.96;92994.03;5015379;28;20319;-70
2023/06/30 06:07:22;;;;;;;10.60;9.63;;;;;;;34.42;30.05;92994.34;5000312;28;20196;-69
2023/06/30 06:09:47;;;;;;;11.20;10.40;;;;;;;36.52;26.72;93004.06;5009364;28;20219;-70
2023/06/30 06:12:13;;;;;;;11.35;10.35;;;;;;;37.09;25.65;93009.44;5010440;28;20198;-70
2023/06/30 06:14:38;;;;;;;12.85;11.70;;;;;;;34.93;27.84;92999.09;5012468;28;20492;-70
2023/06/30 06:17:03;;;;;;;12.25;11.05;;;;;;;34.44;29.46;93000.13;5010376;28;20281;-69
2023/06/30 06:19:29;;;;;;;11.88;10.90;;;;;;;35.74;27.75;93010.03;5010165;28;20255;-68
2023/06/30 06:21:54;;;;;;;11.27;10.07;;;;;;;33.96;30.41;93006.03;5010443;28;20228;-69
2023/06/30 06:24:20;;;;;;;11.48;10.63;;;;;;;35.73;27.15;93003.81;5009711;28;20936;-68
2023/06/30 06:26:45;;;;;;;13.10;11.65;;;;;;;34.41;28.86;92990.13;5009965;28;20961;-68
2023/06/30 06:29:14;;;;;;;11.45;10.55;;;;;;;34.29;29.65;92979.84;5014486;28;20178;-69
2023/06/30 06:31:39;;;;;;;11.40;10.50;;;;;;;36.11;27.36;92995.88;5017957;28;20183;-69
2023/06/30 06:34:05;;;;;;;15.85;11.38;;;;;;;36.24;26.20;92996.66;5007420;28;20219;-69
2023/06/30 06:36:30;;;;;;;11.68;10.77;;;;;;;34.83;28.46;92996.59;5008756;28;20280;-70
2023/06/30 06:38:56;;;;;;;12.50;10.57;;;;;;;36.93;25.63;93012.25;5009476;28;20278;-71
2023/06/30 06:41:21;;;;;;;12.48;10.40;;;;;;;35.41;27.64;92996.44;5041432;28;21010;-69
2023/06/30 06:43:46;;;;;;;12.15;11.02;;;;;;;33.36;31.41;92994.66;5009454;28;20202;-70
2023/06/30 06:46:12;;;;;;;11.50;10.43;;;;;;;34.45;28.65;92995.47;5009046;28;20257;-70
2023/06/30 06:48:38;;;;;;;11.98;10.93;;;;;;;31.41;33.14;92989.25;5010159;28;20259;-70
2023/06/30 06:51:03;;;;;;;13.18;12.18;;;;;;;35.69;27.61;92996.94;5008520;28;20227;-70
2023/06/30 06:53:32;;;;;;;12.38;11.25;;;;;;;32.03;32.23;92981.75;5008841;28;20211;-70
2023/06/30 06:55:58;;;;;;;12.38;11.20;;;;;;;27.77;40.37;92969.72;5009642;28;20220;-72
2023/06/30 06:58:26;;;;;;;13.70;12.50;;;;;;;24.27;51.48;92930.44;5003664;28;20229;-69
2023/06/30 07:00:52;;;;;;;14.35;12.48;;;;;;;24.70;50.96;92964.03;5008507;28;20215;-69
2023/06/30 07:03:19;;;;;;;13.88;12.68;;;;;;;23.36;54.72;92949.97;5009543;28;20226;-70
2023/06/30 07:05:45;;;;;;;13.93;12.93;;;;;;;22.68;57.58;92946.13;5009277;28;20230;-70
2023/06/30 07:08:11;;;;;;;15.43;13.93;;;;;;;21.78;60.99;92943.38;5008542;28;20183;-71
2023/06/30 07:10:37;;;;;;;17.45;13.95;;;;;;;21.52;64.05;92943.00;5008776;28;20265;-81
2023/06/30 07:13:03;;;;;;;14.18;12.90;;;;;;;22.34;58.50;92946.75;5009532;28;20205;-75
2023/06/30 07:15:29;;;;;;;14.77;13.50;;;;;;;21.52;62.46;92940.34;5011877;28;20225;-79
2023/06/30 07:17:58;;;;;;;14.70;13.48;;;;;;;21.56;63.88;92943.88;5020227;28;20257;-77
2023/06/30 07:20:24;;;;;;;12.50;11.48;;;;;;;21.95;58.49;92932.44;5008782;28;20240;-79
2023/06/30 07:22:51;;;;;;;14.95;13.32;;;;;;;21.47;58.90;92922.78;5009177;28;20190;-84
2023/06/30 07:25:16;;;;;;;13.45;12.38;;;;;;;20.67;62.88;92924.53;5008686;28;20228;-78
2023/06/30 07:27:53;;;;;;;14.75;13.23;;;;;;;20.95;69.63;92940.56;5009071;28;20186;-82
2023/06/30 07:30:20;;;;;;;13.55;12.57;;;;;;;21.41;63.71;92932.09;5009072;28;20230;-79
2023/06/30 07:32:45;;;;;;;14.35;13.02;;;;;;;21.22;64.51;92934.56;5019543;28;20204;-78
2023/06/30 07:35:11;;;;;;;13.77;12.40;;;;;;;21.24;62.77;92937.69;5013249;28;20255;-71
2023/06/30 07:37:37;;;;;;;13.18;12.27;;;;;;;21.06;62.28;92928.41;5005843;28;20207;-71
2023/06/30 07:40:02;;;;;;;15.73;14.40;;;;;;;21.81;62.77;92932.06;5007952;28;20232;-71
2023/06/30 07:42:28;;;;;;;15.95;14.55;;;;;;;21.81;60.61;92932.06;5006647;28;20208;-72
2023/06/30 07:44:53;;;;;;;14.82;13.52;;;;;;;21.82;61.96;92930.97;5008628;28;20233;-71
2023/06/30 07:47:19;;;;;;;12.35;11.27;;;;;;;21.74;57.32;92939.84;5008024;28;20189;-72
2023/06/30 07:49:44;;;;;;;12.30;11.30;;;;;;;21.37;62.89;92939.19;5008535;28;20240;-72
2023/06/30 07:52:10;;;;;;;12.57;11.48;;;;;;;21.31;60.80;92926.50;5009068;28;20192;-71
2023/06/30 07:54:36;;;;;;;21.00;12.23;;;;;;;21.70;59.78;92939.75;5008141;28;20494;-71
2023/06/30 07:57:01;;;;;;;11.88;11.00;;;;;;;21.86;57.54;92910.56;5009188;28;20241;-71
2023/06/30 07:59:27;;;;;;;12.43;11.52;;;;;;;22.05;58.66;92926.66;5010238;28;20309;-72
2023/06/30 08:01:52;;;;;;;14.02;12.63;;;;;;;21.79;63.01;92931.66;5008651;28;20193;-71
2023/06/30 08:04:18;;;;;;;15.77;11.82;;;;;;;21.80;61.82;92930.53;5007582;28;20225;-71
2023/06/30 08:06:44;;;;;;;12.38;11.38;;;;;;;22.18;57.44;92928.09;5008568;28;20232;-71
2023/06/30 08:09:10;;;;;;;11.60;10.70;;;;;;;22.10;54.59;92932.47;5008365;28;20199;-71
2023/06/30 08:11:36;;;;;;;10.48;9.68;;;;;;;22.25;55.81;92928.31;5013208;28;20211;-70
2023/06/30 08:14:04;;;;;;;11.75;10.70;;;;;;;22.05;57.93;92921.34;5011757;28;20191;-73
2023/06/30 08:16:29;;;;;;;9.77;9.20;;;;;;;21.96;53.36;92932.09;5022374;28;20962;-72
2023/06/30 08:18:55;;;;;;;11.95;11.15;;;;;;;21.16;56.30;92929.81;5012096;28;20206;-72
2023/06/30 08:21:20;;;;;;;10.18;9.32;;;;;;;21.77;56.79;92931.22;5017161;28;20287;-81
2023/06/30 08:23:46;;;;;;;12.27;11.35;;;;;;;21.80;56.59;92931.31;5010028;28;20238;-82
2023/06/30 08:26:11;;;;;;;12.98;11.88;;;;;;;22.10;55.65;92913.09;5010864;28;20437;-79
2023/06/30 08:28:36;;;;;;;12.73;11.57;;;;;;;22.21;55.11;92917.56;5009460;28;20974;-79
2023/06/30 08:31:02;;;;;;;12.80;11.70;;;;;;;21.98;57.27;92908.63;5011499;28;20239;-80
2023/06/30 08:33:28;;;;;;;11.48;10.68;;;;;;;21.84;55.29;92912.78;5011662;28;21001;-80
2023/06/30 08:35:54;;;;;;;10.10;9.27;;;;;;;21.62;59.89;92911.41;5009524;28;20267;-80
2023/06/30 08:38:20;;;;;;;10.80;9.85;;;;;;;22.10;55.75;92897.16;5011139;28;20224;-81
2023/06/30 08:40:45;;;;;;;11.27;10.38;;;;;;;21.60;57.72;92881.78;5011598;28;20236;-79
2023/06/30 08:43:11;;;;;;;11.30;10.30;;;;;;;22.33;52.61;92899.97;5011450;28;20301;-81
2023/06/30 08:45:39;;;;;;;11.23;10.32;;;;;;;22.14;52.14;92890.81;5010977;28;20323;-79
2023/06/30 08:48:05;;;;;;;10.93;10.05;;;;;;;22.02;54.61;92893.50;5011964;28;20198;-78
2023/06/30 08:50:34;;;;;;;10.65;9.80;;;;;;;22.02;56.87;92888.19;5017118;28;20232;-80
2023/06/30 08:53:01;;;;;;;10.95;10.00;;;;;;;22.04;52.14;92879.88;5011526;28;20243;-80
2023/06/30 08:55:26;;;;;;;11.02;10.23;;;;;;;22.23;53.61;92894.06;5011580;28;20246;-71
2023/06/30 08:57:55;;;;;;;11.35;10.38;;;;;;;22.26;54.27;92887.28;5014051;28;20184;-74
2023/06/30 09:00:21;;;;;;;12.27;11.15;;;;;;;21.28;55.34;92880.09;5011035;28;20223;-74
2023/06/30 09:02:47;;;;;;;11.43;10.32;;;;;;;21.97;54.13;92874.41;5010964;28;20199;-70
2023/06/30 09:05:14;;;;;;;11.60;10.70;;;;;;;22.14;53.86;92879.38;5010551;28;20244;-71
2023/06/30 09:07:46;;;;;;;12.18;11.07;;;;;;;22.18;56.73;92877.56;5011384;28;20236;-70
2023/06/30 09:10:13;;;;;;;12.65;11.38;;;;;;;22.48;58.13;92878.69;5010157;28;20235;-68
2023/06/30 09:12:44;;;;;;;10.85;9.85;;;;;;;22.77;55.18;92882.81;5018277;28;20181;-67
2023/06/30 09:15:10;;;;;;;12.00;11.20;;;;;;;22.77;54.63;92883.56;5014111;28;20259;-71
2023/06/30 09:17:35;;;;;;;13.20;12.30;;;;;;;22.81;53.73;92881.78;5016707;28;20199;-70
2023/06/30 09:20:01;;;;;;;12.55;11.65;;;;;;;22.62;52.22;92881.72;5041929;28;20239;-70
2023/06/30 09:22:26;;;;;;;12.00;10.90;;;;;;;22.83;54.75;92887.53;5009835;28;20194;-70
2023/06/30 09:24:53;;;;;;;13.38;11.48;;;;;;;22.92;52.17;92888.09;5042480;28;20237;-69
2023/06/30 09:27:18;;;;;;;12.10;11.13;;;;;;;22.68;53.61;92882.97;5010826;28;20717;-70
2023/06/30 09:29:52;;;;;;;11.93;10.95;;;;;;;22.36;55.56;92875.34;5010706;28;20253;-69
2023/06/30 09:32:18;;;;;;;11.63;9.85;;;;;;;22.68;54.73;92882.97;5008391;28;20192;-70
2023/06/30 09:34:43;;;;;;;13.30;12.25;;;;;;;22.89;55.00;92880.03;5008631;28;20229;-70
2023/06/30 09:37:15;;;;;;;12.20;11.00;;;;;;;23.11;54.06;92866.06;5010822;28;20181;-70
2023/06/30 09:39:42;;;;;;;13.98;12.80;;;;;;;23.06;52.40;92872.44;5018040;28;20226;-71
2023/06/30 09:42:15;;;;;;;11.95;11.05;;;;;;;23.05;54.58;92878.09;5012217;28;20456;-70
2023/06/30 09:44:40;;;;;;;13.60;12.43;;;;;;;23.13;52.53;92872.56;5010638;28;20264;-70
2023/06/30 09:47:07;;;;;;;14.38;13.10;;;;;;;23.08;52.86;92870.16;5013741;28;20252;-69
2023/06/30 09:49:32;;;;;;;12.35;11.40;;;;;;;23.19;51.63;92862.41;5009910;28;20236;-70
2023/06/30 09:52:03;;;;;;;13.43;12.45;;;;;;;22.16;54.98;92871.84;5009872;28;20186;-69
2023/06/30 09:54:29;;;;;;;13.10;12.00;;;;;;;22.33;55.09;92860.84;5015493;28;20320;-70
2023/06/30 09:57:04;;;;;;;12.95;11.82;;;;;;;23.10;52.39;92867.94;5010223;28;20213;-70
2023/06/30 09:59:29;;;;;;;12.60;11.40;;;;;;;22.20;54.81;92859.38;5009599;28;20239;-70
2023/06/30 10:01:56;;;;;;;11.75;10.65;;;;;;;22.98;54.76;92859.28;5013078;28;20196;-69
2023/06/30 10:04:22;;;;;;;12.32;11.45;;;;;;;23.15;56.13;92857.00;5009430;28;20220;-70
2023/06/30 10:06:50;;;;;;;12.77;11.57;;;;;;;23.28;54.04;92850.47;5009253;28;20210;-70
2023/06/30 10:09:16;;;;;;;12.73;11.52;;;;;;;22.99;54.37;92860.88;5009105;28;20197;-70
2023/06/30 10:11:44;;;;;;;14.15;12.85;;;;;;;22.94;55.56;92851.22;5002861;28;20216;-70
2023/06/30 10:14:10;;;;;;;13.73;12.65;;;;;;;22.97;53.56;92847.91;5009757;28;20228;-70
2023/06/30 10:16:37;;;;;;;13.23;12.23;;;;;;;22.67;54.92;92844.19;5020732;28;20197;-70
2023/06/30 10:19:05;;;;;;;13.25;12.15;;;;;;;23.10;54.02;92832.53;5010198;28;20199;-69
2023/06/30 10:21:30;;;;;;;16.58;11.52;;;;;;;23.24;56.24;92838.16;5009176;28;20228;-71
2023/06/30 10:23:57;;;;;;;14.80;12.25;;;;;;;23.51;52.70;92832.66;5009221;28;20198;-71
2023/06/30 10:26:24;;;;;;;12.43;11.38;;;;;;;23.51;54.28;92832.66;5009285;28;20220;-70
2023/06/30 10:28:50;;;;;;;13.88;12.55;;;;;;;23.65;55.90;92827.56;5009200;28;20284;-70
2023/06/30 10:31:16;;;;;;;12.77;11.80;;;;;;;23.33;54.52;92831.50;5009999;28;20233;-71
2023/06/30 10:33:42;;;;;;;12.93;11.77;;;;;;;23.49;52.54;92810.91;5009132;28;20208;-70
2023/06/30 10:36:08;;;;;;;13.10;11.93;;;;;;;23.69;52.61;92825.72;5007871;28;20238;-70
2023/06/30 10:38:36;;;;;;;13.07;11.95;;;;;;;23.64;55.25;92823.34;5009336;28;20186;-70
2023/06/30 10:41:17;;;;;;;12.25;11.25;;;;;;;23.62;57.52;92820.28;5011847;28;20298;-73
2023/06/30 10:44:04;;;;;;;12.18;11.15;;;;;;;23.48;55.47;92813.91;5008208;28;20186;-76
2023/06/30 10:46:55;;;;;;;13.70;12.48;;;;;;;23.73;53.17;92809.81;5007623;28;20234;-74
2023/06/30 10:49:29;;;;;;;12.68;11.55;;;;;;;23.55;53.06;92798.03;5008621;28;20198;-75
2023/06/30 10:51:56;;;;;;;13.43;12.07;;;;;;;23.70;51.88;92797.19;5010394;28;20194;-76
2023/06/30 10:54:24;;;;;;;13.13;11.88;;;;;;;23.97;50.38;92798.81;5008992;28;20225;-75
2023/06/30 10:56:50;;;;;;;11.98;10.98;;;;;;;23.81;51.81;92805.34;5012268;28;20193;-75
2023/06/30 10:59:23;;;;;;;13.25;12.02;;;;;;;23.78;53.01;92796.19;5009912;28;20260;-75
2023/06/30 11:02:11;;;;;;;12.80;11.82;;;;;;;24.12;50.42;92786.47;5015837;28;20184;-75
2023/06/30 11:04:37;;;;;;;13.63;12.30;;;;;;;24.07;50.70;92786.78;5037915;28;20237;-75
2023/06/30 11:07:03;;;;;;;12.25;11.25;;;;;;;23.92;49.38;92774.31;5009172;28;20237;-75
2023/06/30 11:09:47;;;;;;;13.68;12.43;;;;;;;23.81;51.96;92789.34;5009383;28;20701;-75
2023/06/30 11:12:27;;;;;;;12.23;11.32;;;;;;;23.78;54.21;92783.59;5013229;28;20212;-75
2023/06/30 11:14:56;;;;;;;11.60;10.70;;;;;;;24.03;49.20;92785.94;5017245;28;20242;-76